Kt Birdie — 3FUJ7 — position and weather

sailwx.info

Track history (hours):
 
Tides and Currents Weather Stations Pressure Air Temp Water Temp Dewpoint Dewpoint Depression Visibility Wind Speed Wind Dir Waves Ship Positions

Kt Birdie

Last reported at 2017-Jun-10 20:39 UTC. Time now 2017-Jun-23 03:36 UTC.
Position N 25°28' W 079°29'.
Warning: this ship's position is 12 days out of date.

Length 225 m; draft 13.2 m.

Type: Cargo ship. MMSI: 354803000.

Date/timePositionNaut miles runAvg speedWind from/ knotsBaromVisibWave heightAir tempDewpointWater temp
2017-Jun-10 20:39N 25°28' W 079°29'3 9.3
2017-Jun-10 20:18N 25°31' W 079°29'3 9.1
2017-Jun-10 20:00N 25°34' W 079°29'5 9.0
2017-Jun-10 19:30N 25°38' W 079°29'5 9.1
2017-Jun-10 19:00N 25°43' W 079°28'5 9.1
2017-Jun-10 18:30N 25°48' W 079°28'5 9.4
2017-Jun-10 18:00N 25°52' W 079°27'23 9.1
2017-Jun-10 15:31N 26°13' W 079°16'0 8.8
2017-Jun-10 15:29N 26°13' W 079°16'31 1.8
2017-Jun-09 22:16N 26°31' W 078°47'18 1.0
2017-Jun-09 03:36N 26°20' W 079°04'2 8.1
2017-Jun-09 03:20N 26°21' W 079°02'  
Track history (hours):
 
Tides and Currents Weather Stations Pressure Air Temp Water Temp Dewpoint Dewpoint Depression Visibility Wind Speed Wind Dir Waves Ship Positions

Kt Birdie

Last reported at 2017-Jun-10 20:39 UTC. Time now 2017-Jun-23 03:36 UTC.
Position N 25°28' W 079°29'.
Warning: this ship's position is 12 days out of date.

Length 225 m; draft 13.2 m.

Type: Cargo ship. MMSI: 354803000.

Date/timePositionNaut miles runAvg speedWind from/ knotsBaromVisibWave heightAir tempDewpointWater temp
2017-Jun-10 20:39N 25°28' W 079°29'3 9.3
2017-Jun-10 20:18N 25°31' W 079°29'3 9.1
2017-Jun-10 20:00N 25°34' W 079°29'5 9.0
2017-Jun-10 19:30N 25°38' W 079°29'5 9.1
2017-Jun-10 19:00N 25°43' W 079°28'5 9.1
2017-Jun-10 18:30N 25°48' W 079°28'5 9.4
2017-Jun-10 18:00N 25°52' W 079°27'23 9.1
2017-Jun-10 15:31N 26°13' W 079°16'0 8.8
2017-Jun-10 15:29N 26°13' W 079°16'31 1.8
2017-Jun-09 22:16N 26°31' W 078°47'18 1.0
2017-Jun-09 03:36N 26°20' W 079°04'2 8.1
2017-Jun-09 03:20N 26°21' W 079°02'  

Dump ship's entire track history